sensor_id;sensor_type;location;lat;lon;timestamp;P1;durP1;ratioP1;P2;durP2;ratioP2
25667;SDS011;18003;-33.830;151.202;2022-12-29T00:00:38;7.55;;;2.95;;
25667;SDS011;18003;-33.830;151.202;2022-12-29T00:03:08;10.10;;;3.27;;
25667;SDS011;18003;-33.830;151.202;2022-12-29T00:05:37;7.08;;;2.60;;
25667;SDS011;18003;-33.830;151.202;2022-12-29T00:08:08;10.70;;;3.20;;
25667;SDS011;18003;-33.830;151.202;2022-12-29T00:10:38;9.20;;;3.40;;
25667;SDS011;18003;-33.830;151.202;2022-12-29T00:13:08;9.18;;;2.98;;
25667;SDS011;18003;-33.830;151.202;2022-12-29T00:15:55;11.20;;;3.60;;
25667;SDS011;18003;-33.830;151.202;2022-12-29T00:18:26;9.28;;;3.17;;
25667;SDS011;18003;-33.830;151.202;2022-12-29T00:20:56;7.70;;;3.42;;
25667;SDS011;18003;-33.830;151.202;2022-12-29T00:23:43;9.85;;;3.33;;
25667;SDS011;18003;-33.830;151.202;2022-12-29T00:26:30;8.23;;;3.27;;
25667;SDS011;18003;-33.830;151.202;2022-12-29T00:29:18;8.73;;;3.25;;
25667;SDS011;18003;-33.830;151.202;2022-12-29T00:32:06;8.33;;;3.25;;
25667;SDS011;18003;-33.830;151.202;2022-12-29T00:34:54;11.30;;;3.67;;
25667;SDS011;18003;-33.830;151.202;2022-12-29T00:37:37;14.98;;;3.85;;
25667;SDS011;18003;-33.830;151.202;2022-12-29T00:40:29;12.68;;;3.37;;
25667;SDS011;18003;-33.830;151.202;2022-12-29T00:43:16;11.57;;;3.42;;
25667;SDS011;18003;-33.830;151.202;2022-12-29T00:46:04;11.30;;;3.98;;
25667;SDS011;18003;-33.830;151.202;2022-12-29T00:48:34;9.90;;;3.25;;
25667;SDS011;18003;-33.830;151.202;2022-12-29T00:51:22;11.90;;;3.72;;
25667;SDS011;18003;-33.830;151.202;2022-12-29T00:53:53;9.33;;;3.60;;
25667;SDS011;18003;-33.830;151.202;2022-12-29T00:56:23;11.48;;;3.52;;
25667;SDS011;18003;-33.830;151.202;2022-12-29T00:58:53;12.47;;;3.60;;
25667;SDS011;18003;-33.830;151.202;2022-12-29T01:01:23;8.28;;;3.40;;
25667;SDS011;18003;-33.830;151.202;2022-12-29T01:03:53;15.18;;;4.35;;
25667;SDS011;18003;-33.830;151.202;2022-12-29T01:06:23;11.70;;;4.00;;
25667;SDS011;18003;-33.830;151.202;2022-12-29T01:08:53;10.50;;;3.90;;
25667;SDS011;18003;-33.830;151.202;2022-12-29T01:11:40;14.47;;;3.92;;
25667;SDS011;18003;-33.830;151.202;2022-12-29T01:14:10;19.70;;;4.70;;
25667;SDS011;18003;-33.830;151.202;2022-12-29T01:16:40;11.35;;;3.83;;
25667;SDS011;18003;-33.830;151.202;2022-12-29T01:19:10;15.40;;;4.05;;
25667;SDS011;18003;-33.830;151.202;2022-12-29T01:21:41;13.78;;;3.98;;
25667;SDS011;18003;-33.830;151.202;2022-12-29T01:24:11;14.00;;;4.28;;
25667;SDS011;18003;-33.830;151.202;2022-12-29T01:26:41;14.95;;;3.90;;
25667;SDS011;18003;-33.830;151.202;2022-12-29T01:29:12;13.45;;;3.98;;
25667;SDS011;18003;-33.830;151.202;2022-12-29T01:31:42;10.45;;;3.70;;
25667;SDS011;18003;-33.830;151.202;2022-12-29T01:34:12;13.80;;;4.50;;
25667;SDS011;18003;-33.830;151.202;2022-12-29T01:36:42;14.85;;;4.28;;
25667;SDS011;18003;-33.830;151.202;2022-12-29T01:39:13;13.35;;;4.33;;
25667;SDS011;18003;-33.830;151.202;2022-12-29T01:41:43;14.90;;;4.55;;
25667;SDS011;18003;-33.830;151.202;2022-12-29T01:48:02;13.72;;;4.50;;
25667;SDS011;18003;-33.830;151.202;2022-12-29T01:50:09;17.07;;;4.20;;
25667;SDS011;18003;-33.830;151.202;2022-12-29T01:52:40;16.87;;;4.72;;
25667;SDS011;18003;-33.830;151.202;2022-12-29T01:55:12;15.50;;;4.25;;
25667;SDS011;18003;-33.830;151.202;2022-12-29T01:57:43;12.82;;;3.85;;
25667;SDS011;18003;-33.830;151.202;2022-12-29T02:00:14;13.20;;;4.47;;
25667;SDS011;18003;-33.830;151.202;2022-12-29T02:02:45;16.80;;;4.42;;
25667;SDS011;18003;-33.830;151.202;2022-12-29T02:08:06;13.13;;;4.08;;
25667;SDS011;18003;-33.830;151.202;2022-12-29T02:10:37;10.68;;;3.75;;
25667;SDS011;18003;-33.830;151.202;2022-12-29T02:13:08;12.50;;;4.22;;
25667;SDS011;18003;-33.830;151.202;2022-12-29T02:18:32;14.78;;;4.40;;
25667;SDS011;18003;-33.830;151.202;2022-12-29T02:21:06;12.07;;;4.37;;
25667;SDS011;18003;-33.830;151.202;2022-12-29T02:29:19;11.90;;;4.45;;
25667;SDS011;18003;-33.830;151.202;2022-12-29T02:31:55;13.65;;;3.95;;
25667;SDS011;18003;-33.830;151.202;2022-12-29T02:34:58;11.35;;;3.72;;
25667;SDS011;18003;-33.830;151.202;2022-12-29T02:37:37;13.10;;;4.08;;
25667;SDS011;18003;-33.830;151.202;2022-12-29T02:45:43;8.45;;;3.37;;
25667;SDS011;18003;-33.830;151.202;2022-12-29T02:51:04;10.30;;;3.42;;
25667;SDS011;18003;-33.830;151.202;2022-12-29T02:53:36;13.13;;;3.90;;
25667;SDS011;18003;-33.830;151.202;2022-12-29T02:56:25;11.43;;;3.30;;
25667;SDS011;18003;-33.830;151.202;2022-12-29T03:01:29;11.53;;;3.55;;
25667;SDS011;18003;-33.830;151.202;2022-12-29T03:09:19;14.60;;;4.10;;
25667;SDS011;18003;-33.830;151.202;2022-12-29T03:12:29;12.55;;;3.85;;
25667;SDS011;18003;-33.830;151.202;2022-12-29T03:14:49;13.83;;;4.85;;
25667;SDS011;18003;-33.830;151.202;2022-12-29T03:17:39;9.55;;;4.08;;
25667;SDS011;18003;-33.830;151.202;2022-12-29T03:20:13;12.33;;;4.35;;
25667;SDS011;18003;-33.830;151.202;2022-12-29T03:22:43;12.75;;;3.77;;
25667;SDS011;18003;-33.830;151.202;2022-12-29T03:25:22;10.93;;;3.77;;
25667;SDS011;18003;-33.830;151.202;2022-12-29T03:28:02;11.88;;;3.45;;
25667;SDS011;18003;-33.830;151.202;2022-12-29T03:30:33;12.70;;;3.98;;
25667;SDS011;18003;-33.830;151.202;2022-12-29T03:33:04;11.20;;;3.67;;
25667;SDS011;18003;-33.830;151.202;2022-12-29T03:35:38;11.15;;;3.70;;
25667;SDS011;18003;-33.830;151.202;2022-12-29T03:38:21;10.88;;;3.65;;
25667;SDS011;18003;-33.830;151.202;2022-12-29T03:40:56;7.60;;;3.30;;
25667;SDS011;18003;-33.830;151.202;2022-12-29T03:43:23;13.80;;;4.10;;
25667;SDS011;18003;-33.830;151.202;2022-12-29T03:45:57;7.83;;;3.98;;
25667;SDS011;18003;-33.830;151.202;2022-12-29T03:48:27;7.28;;;3.58;;
25667;SDS011;18003;-33.830;151.202;2022-12-29T03:50:57;6.80;;;3.45;;
25667;SDS011;18003;-33.830;151.202;2022-12-29T03:53:27;8.63;;;3.70;;
25667;SDS011;18003;-33.830;151.202;2022-12-29T03:55:57;8.13;;;3.70;;
25667;SDS011;18003;-33.830;151.202;2022-12-29T03:58:29;9.78;;;3.60;;
25667;SDS011;18003;-33.830;151.202;2022-12-29T04:00:59;9.18;;;3.55;;
25667;SDS011;18003;-33.830;151.202;2022-12-29T04:03:29;7.78;;;3.62;;
25667;SDS011;18003;-33.830;151.202;2022-12-29T04:05:59;8.15;;;3.58;;
25667;SDS011;18003;-33.830;151.202;2022-12-29T04:08:29;9.90;;;3.80;;
25667;SDS011;18003;-33.830;151.202;2022-12-29T04:10:59;9.60;;;3.80;;
25667;SDS011;18003;-33.830;151.202;2022-12-29T04:13:30;7.85;;;3.90;;
25667;SDS011;18003;-33.830;151.202;2022-12-29T04:15:59;7.33;;;3.95;;
25667;SDS011;18003;-33.830;151.202;2022-12-29T04:18:30;8.45;;;3.90;;
25667;SDS011;18003;-33.830;151.202;2022-12-29T04:21:00;9.75;;;4.30;;
25667;SDS011;18003;-33.830;151.202;2022-12-29T04:23:30;7.58;;;3.55;;
25667;SDS011;18003;-33.830;151.202;2022-12-29T04:26:02;10.72;;;3.95;;
25667;SDS011;18003;-33.830;151.202;2022-12-29T04:31:02;9.83;;;4.00;;
25667;SDS011;18003;-33.830;151.202;2022-12-29T04:33:33;8.60;;;4.00;;
25667;SDS011;18003;-33.830;151.202;2022-12-29T04:36:03;9.43;;;4.25;;
25667;SDS011;18003;-33.830;151.202;2022-12-29T04:38:33;9.80;;;4.00;;
25667;SDS011;18003;-33.830;151.202;2022-12-29T04:41:03;9.50;;;3.87;;
25667;SDS011;18003;-33.830;151.202;2022-12-29T04:43:34;7.72;;;3.98;;
25667;SDS011;18003;-33.830;151.202;2022-12-29T04:46:03;10.43;;;4.30;;
25667;SDS011;18003;-33.830;151.202;2022-12-29T04:48:37;10.20;;;3.92;;
25667;SDS011;18003;-33.830;151.202;2022-12-29T04:51:07;7.05;;;4.10;;
25667;SDS011;18003;-33.830;151.202;2022-12-29T04:53:37;9.85;;;4.30;;
25667;SDS011;18003;-33.830;151.202;2022-12-29T04:56:07;8.65;;;3.98;;
25667;SDS011;18003;-33.830;151.202;2022-12-29T04:58:40;7.62;;;4.30;;
25667;SDS011;18003;-33.830;151.202;2022-12-29T05:01:11;7.58;;;3.85;;
25667;SDS011;18003;-33.830;151.202;2022-12-29T05:03:41;8.73;;;3.75;;
25667;SDS011;18003;-33.830;151.202;2022-12-29T05:06:11;6.78;;;3.70;;
25667;SDS011;18003;-33.830;151.202;2022-12-29T05:08:41;9.30;;;3.80;;
25667;SDS011;18003;-33.830;151.202;2022-12-29T05:11:11;8.00;;;3.77;;
25667;SDS011;18003;-33.830;151.202;2022-12-29T05:13:44;10.50;;;4.08;;
25667;SDS011;18003;-33.830;151.202;2022-12-29T05:16:15;8.93;;;3.87;;
25667;SDS011;18003;-33.830;151.202;2022-12-29T05:18:45;8.20;;;3.90;;
25667;SDS011;18003;-33.830;151.202;2022-12-29T05:21:15;7.33;;;3.58;;
25667;SDS011;18003;-33.830;151.202;2022-12-29T05:23:45;8.58;;;3.70;;
25667;SDS011;18003;-33.830;151.202;2022-12-29T05:26:15;6.10;;;3.62;;
25667;SDS011;18003;-33.830;151.202;2022-12-29T05:28:45;7.97;;;3.85;;
25667;SDS011;18003;-33.830;151.202;2022-12-29T05:31:15;9.35;;;3.85;;
25667;SDS011;18003;-33.830;151.202;2022-12-29T05:33:45;9.38;;;4.03;;
25667;SDS011;18003;-33.830;151.202;2022-12-29T05:36:15;9.65;;;3.83;;
25667;SDS011;18003;-33.830;151.202;2022-12-29T05:38:46;8.33;;;4.12;;
25667;SDS011;18003;-33.830;151.202;2022-12-29T05:41:16;8.50;;;3.58;;
25667;SDS011;18003;-33.830;151.202;2022-12-29T05:43:46;6.95;;;3.50;;
25667;SDS011;18003;-33.830;151.202;2022-12-29T05:46:16;8.70;;;3.60;;
25667;SDS011;18003;-33.830;151.202;2022-12-29T05:48:46;8.20;;;3.40;;
25667;SDS011;18003;-33.830;151.202;2022-12-29T05:51:16;11.08;;;3.77;;
25667;SDS011;18003;-33.830;151.202;2022-12-29T05:53:46;13.85;;;3.90;;
25667;SDS011;18003;-33.830;151.202;2022-12-29T05:56:16;9.60;;;3.42;;
25667;SDS011;18003;-33.830;151.202;2022-12-29T05:58:46;9.88;;;3.87;;
25667;SDS011;18003;-33.830;151.202;2022-12-29T06:01:17;11.20;;;3.60;;
25667;SDS011;18003;-33.830;151.202;2022-12-29T06:03:48;12.25;;;4.53;;
25667;SDS011;18003;-33.830;151.202;2022-12-29T06:06:18;10.72;;;4.17;;
25667;SDS011;18003;-33.830;151.202;2022-12-29T06:08:48;11.43;;;4.33;;
25667;SDS011;18003;-33.830;151.202;2022-12-29T06:11:18;12.45;;;3.83;;
25667;SDS011;18003;-33.830;151.202;2022-12-29T06:13:48;11.25;;;3.87;;
25667;SDS011;18003;-33.830;151.202;2022-12-29T06:16:18;14.05;;;4.00;;
25667;SDS011;18003;-33.830;151.202;2022-12-29T06:18:48;14.78;;;4.00;;
25667;SDS011;18003;-33.830;151.202;2022-12-29T06:21:19;11.05;;;3.50;;
25667;SDS011;18003;-33.830;151.202;2022-12-29T06:23:49;9.38;;;3.62;;
25667;SDS011;18003;-33.830;151.202;2022-12-29T06:26:19;6.62;;;3.37;;
25667;SDS011;18003;-33.830;151.202;2022-12-29T06:28:49;9.03;;;3.50;;
25667;SDS011;18003;-33.830;151.202;2022-12-29T06:31:19;8.68;;;3.20;;
25667;SDS011;18003;-33.830;151.202;2022-12-29T06:33:50;8.85;;;3.72;;
25667;SDS011;18003;-33.830;151.202;2022-12-29T06:36:20;9.58;;;3.60;;
25667;SDS011;18003;-33.830;151.202;2022-12-29T06:38:49;9.65;;;3.83;;
25667;SDS011;18003;-33.830;151.202;2022-12-29T06:41:19;9.05;;;3.40;;
25667;SDS011;18003;-33.830;151.202;2022-12-29T06:43:50;10.45;;;4.00;;
25667;SDS011;18003;-33.830;151.202;2022-12-29T06:46:20;8.48;;;3.87;;
25667;SDS011;18003;-33.830;151.202;2022-12-29T06:48:50;7.55;;;3.33;;
25667;SDS011;18003;-33.830;151.202;2022-12-29T06:51:20;11.45;;;4.42;;
25667;SDS011;18003;-33.830;151.202;2022-12-29T06:53:50;10.93;;;3.67;;
25667;SDS011;18003;-33.830;151.202;2022-12-29T06:56:20;9.13;;;3.60;;
25667;SDS011;18003;-33.830;151.202;2022-12-29T06:58:50;14.90;;;3.30;;
25667;SDS011;18003;-33.830;151.202;2022-12-29T07:01:20;10.13;;;3.90;;
25667;SDS011;18003;-33.830;151.202;2022-12-29T07:03:51;10.18;;;3.87;;
25667;SDS011;18003;-33.830;151.202;2022-12-29T07:06:21;11.05;;;3.87;;
25667;SDS011;18003;-33.830;151.202;2022-12-29T07:08:51;12.30;;;4.05;;
25667;SDS011;18003;-33.830;151.202;2022-12-29T07:11:23;9.68;;;3.98;;
25667;SDS011;18003;-33.830;151.202;2022-12-29T07:13:53;12.43;;;4.10;;
25667;SDS011;18003;-33.830;151.202;2022-12-29T07:16:23;11.25;;;3.70;;
25667;SDS011;18003;-33.830;151.202;2022-12-29T07:18:53;11.83;;;4.00;;
25667;SDS011;18003;-33.830;151.202;2022-12-29T07:21:23;12.05;;;4.65;;
25667;SDS011;18003;-33.830;151.202;2022-12-29T07:23:53;7.67;;;3.72;;
25667;SDS011;18003;-33.830;151.202;2022-12-29T07:26:24;12.40;;;3.85;;
25667;SDS011;18003;-33.830;151.202;2022-12-29T07:28:54;11.43;;;4.12;;
25667;SDS011;18003;-33.830;151.202;2022-12-29T07:31:24;10.88;;;3.75;;
25667;SDS011;18003;-33.830;151.202;2022-12-29T07:33:54;10.13;;;3.75;;
25667;SDS011;18003;-33.830;151.202;2022-12-29T07:36:24;10.00;;;3.92;;
25667;SDS011;18003;-33.830;151.202;2022-12-29T07:38:54;10.90;;;3.67;;
25667;SDS011;18003;-33.830;151.202;2022-12-29T07:41:24;11.08;;;4.17;;
25667;SDS011;18003;-33.830;151.202;2022-12-29T07:43:55;13.78;;;4.20;;
25667;SDS011;18003;-33.830;151.202;2022-12-29T07:46:25;11.25;;;4.08;;
25667;SDS011;18003;-33.830;151.202;2022-12-29T07:48:55;12.33;;;4.20;;
25667;SDS011;18003;-33.830;151.202;2022-12-29T07:51:25;11.40;;;3.60;;
25667;SDS011;18003;-33.830;151.202;2022-12-29T07:53:55;12.20;;;3.90;;
25667;SDS011;18003;-33.830;151.202;2022-12-29T07:56:26;12.20;;;3.72;;
25667;SDS011;18003;-33.830;151.202;2022-12-29T07:58:56;9.98;;;3.30;;
25667;SDS011;18003;-33.830;151.202;2022-12-29T08:01:46;11.08;;;3.80;;
25667;SDS011;18003;-33.830;151.202;2022-12-29T08:04:35;13.25;;;3.70;;
25667;SDS011;18003;-33.830;151.202;2022-12-29T08:07:06;11.28;;;3.95;;
25667;SDS011;18003;-33.830;151.202;2022-12-29T08:09:36;14.87;;;3.77;;
25667;SDS011;18003;-33.830;151.202;2022-12-29T08:12:07;9.18;;;3.37;;
25667;SDS011;18003;-33.830;151.202;2022-12-29T08:17:06;10.48;;;3.37;;
25667;SDS011;18003;-33.830;151.202;2022-12-29T08:19:36;8.25;;;3.33;;
25667;SDS011;18003;-33.830;151.202;2022-12-29T08:22:07;9.95;;;3.50;;
25667;SDS011;18003;-33.830;151.202;2022-12-29T08:24:37;10.08;;;3.72;;
25667;SDS011;18003;-33.830;151.202;2022-12-29T08:27:07;10.98;;;3.70;;
25667;SDS011;18003;-33.830;151.202;2022-12-29T08:29:38;12.95;;;3.98;;
25667;SDS011;18003;-33.830;151.202;2022-12-29T08:32:08;8.90;;;3.20;;
25667;SDS011;18003;-33.830;151.202;2022-12-29T08:34:38;8.03;;;3.80;;
25667;SDS011;18003;-33.830;151.202;2022-12-29T08:37:08;8.73;;;3.33;;
25667;SDS011;18003;-33.830;151.202;2022-12-29T08:39:38;10.45;;;2.98;;
25667;SDS011;18003;-33.830;151.202;2022-12-29T08:42:08;8.93;;;3.37;;
25667;SDS011;18003;-33.830;151.202;2022-12-29T08:44:38;8.20;;;2.98;;
25667;SDS011;18003;-33.830;151.202;2022-12-29T08:47:09;8.95;;;3.00;;
25667;SDS011;18003;-33.830;151.202;2022-12-29T08:49:39;10.30;;;3.17;;
25667;SDS011;18003;-33.830;151.202;2022-12-29T08:52:09;10.63;;;3.20;;
25667;SDS011;18003;-33.830;151.202;2022-12-29T08:54:39;11.73;;;3.90;;
25667;SDS011;18003;-33.830;151.202;2022-12-29T08:57:09;9.70;;;3.10;;
25667;SDS011;18003;-33.830;151.202;2022-12-29T08:59:39;8.65;;;2.87;;
25667;SDS011;18003;-33.830;151.202;2022-12-29T09:02:12;8.68;;;3.02;;
25667;SDS011;18003;-33.830;151.202;2022-12-29T09:04:42;12.98;;;3.25;;
25667;SDS011;18003;-33.830;151.202;2022-12-29T09:07:12;7.58;;;3.00;;
25667;SDS011;18003;-33.830;151.202;2022-12-29T09:09:43;10.68;;;3.30;;
25667;SDS011;18003;-33.830;151.202;2022-12-29T09:12:13;10.53;;;3.27;;
25667;SDS011;18003;-33.830;151.202;2022-12-29T09:14:45;8.35;;;3.10;;
25667;SDS011;18003;-33.830;151.202;2022-12-29T09:17:15;7.90;;;2.85;;
25667;SDS011;18003;-33.830;151.202;2022-12-29T09:20:02;7.78;;;3.27;;
25667;SDS011;18003;-33.830;151.202;2022-12-29T09:22:32;10.32;;;3.05;;
25667;SDS011;18003;-33.830;151.202;2022-12-29T09:25:03;10.78;;;3.35;;
25667;SDS011;18003;-33.830;151.202;2022-12-29T09:27:34;8.08;;;3.00;;
25667;SDS011;18003;-33.830;151.202;2022-12-29T09:30:05;10.93;;;3.22;;
25667;SDS011;18003;-33.830;151.202;2022-12-29T09:32:36;13.20;;;3.40;;
25667;SDS011;18003;-33.830;151.202;2022-12-29T09:35:07;10.40;;;3.47;;
25667;SDS011;18003;-33.830;151.202;2022-12-29T09:37:37;11.75;;;3.55;;
25667;SDS011;18003;-33.830;151.202;2022-12-29T09:40:09;11.73;;;3.58;;
25667;SDS011;18003;-33.830;151.202;2022-12-29T09:45:14;11.33;;;3.22;;
25667;SDS011;18003;-33.830;151.202;2022-12-29T09:47:52;8.78;;;3.08;;
25667;SDS011;18003;-33.830;151.202;2022-12-29T09:50:28;10.63;;;3.47;;
25667;SDS011;18003;-33.830;151.202;2022-12-29T09:55:54;13.62;;;3.60;;
25667;SDS011;18003;-33.830;151.202;2022-12-29T09:58:30;11.63;;;3.30;;
25667;SDS011;18003;-33.830;151.202;2022-12-29T10:03:50;9.65;;;3.27;;
25667;SDS011;18003;-33.830;151.202;2022-12-29T10:06:39;9.40;;;3.58;;
25667;SDS011;18003;-33.830;151.202;2022-12-29T10:12:03;9.68;;;3.25;;
25667;SDS011;18003;-33.830;151.202;2022-12-29T10:14:55;9.05;;;3.50;;
25667;SDS011;18003;-33.830;151.202;2022-12-29T10:17:34;10.78;;;3.40;;
25667;SDS011;18003;-33.830;151.202;2022-12-29T10:20:19;12.43;;;3.40;;
25667;SDS011;18003;-33.830;151.202;2022-12-29T10:25:41;9.20;;;2.95;;
25667;SDS011;18003;-33.830;151.202;2022-12-29T10:28:22;11.63;;;4.62;;
25667;SDS011;18003;-33.830;151.202;2022-12-29T10:30:52;11.27;;;3.60;;
25667;SDS011;18003;-33.830;151.202;2022-12-29T10:33:32;10.90;;;3.25;;
25667;SDS011;18003;-33.830;151.202;2022-12-29T10:36:00;10.53;;;3.27;;
25667;SDS011;18003;-33.830;151.202;2022-12-29T10:38:39;12.07;;;3.40;;
25667;SDS011;18003;-33.830;151.202;2022-12-29T10:41:21;9.93;;;3.20;;
25667;SDS011;18003;-33.830;151.202;2022-12-29T10:43:56;7.92;;;2.80;;
25667;SDS011;18003;-33.830;151.202;2022-12-29T10:46:28;6.67;;;2.72;;
25667;SDS011;18003;-33.830;151.202;2022-12-29T10:48:59;10.05;;;3.30;;
25667;SDS011;18003;-33.830;151.202;2022-12-29T10:51:30;10.45;;;3.08;;
25667;SDS011;18003;-33.830;151.202;2022-12-29T10:54:05;9.90;;;2.90;;
25667;SDS011;18003;-33.830;151.202;2022-12-29T10:56:39;8.95;;;2.87;;
25667;SDS011;18003;-33.830;151.202;2022-12-29T11:02:00;16.07;;;3.85;;
25667;SDS011;18003;-33.830;151.202;2022-12-29T11:04:54;11.90;;;2.80;;
25667;SDS011;18003;-33.830;151.202;2022-12-29T11:07:25;8.83;;;3.20;;
25667;SDS011;18003;-33.830;151.202;2022-12-29T11:10:19;11.40;;;3.58;;
25667;SDS011;18003;-33.830;151.202;2022-12-29T11:13:31;11.65;;;3.50;;
25667;SDS011;18003;-33.830;151.202;2022-12-29T11:15:37;9.80;;;3.10;;
25667;SDS011;18003;-33.830;151.202;2022-12-29T11:18:24;12.03;;;3.75;;
25667;SDS011;18003;-33.830;151.202;2022-12-29T11:20:56;14.15;;;3.75;;
25667;SDS011;18003;-33.830;151.202;2022-12-29T11:26:06;11.03;;;3.52;;
25667;SDS011;18003;-33.830;151.202;2022-12-29T11:28:37;14.75;;;3.37;;
25667;SDS011;18003;-33.830;151.202;2022-12-29T11:31:12;12.18;;;3.62;;
25667;SDS011;18003;-33.830;151.202;2022-12-29T11:33:46;9.73;;;3.10;;
25667;SDS011;18003;-33.830;151.202;2022-12-29T11:36:17;12.80;;;3.62;;
25667;SDS011;18003;-33.830;151.202;2022-12-29T11:38:52;14.38;;;4.00;;
25667;SDS011;18003;-33.830;151.202;2022-12-29T11:43:52;10.82;;;3.60;;
25667;SDS011;18003;-33.830;151.202;2022-12-29T11:46:29;15.55;;;3.60;;
25667;SDS011;18003;-33.830;151.202;2022-12-29T11:48:55;9.38;;;3.60;;
25667;SDS011;18003;-33.830;151.202;2022-12-29T11:53:56;12.35;;;4.00;;
25667;SDS011;18003;-33.830;151.202;2022-12-29T11:56:47;12.50;;;3.77;;
25667;SDS011;18003;-33.830;151.202;2022-12-29T12:02:00;10.75;;;3.30;;
25667;SDS011;18003;-33.830;151.202;2022-12-29T12:04:42;13.62;;;3.62;;
25667;SDS011;18003;-33.830;151.202;2022-12-29T12:07:13;11.22;;;3.47;;
25667;SDS011;18003;-33.830;151.202;2022-12-29T12:09:51;11.05;;;3.55;;
25667;SDS011;18003;-33.830;151.202;2022-12-29T12:15:08;9.60;;;3.60;;
25667;SDS011;18003;-33.830;151.202;2022-12-29T12:17:53;14.45;;;3.90;;
25667;SDS011;18003;-33.830;151.202;2022-12-29T12:20:42;12.88;;;4.05;;
25667;SDS011;18003;-33.830;151.202;2022-12-29T12:26:16;13.20;;;3.47;;
25667;SDS011;18003;-33.830;151.202;2022-12-29T12:31:46;13.35;;;3.60;;
25667;SDS011;18003;-33.830;151.202;2022-12-29T12:34:29;9.48;;;3.37;;
25667;SDS011;18003;-33.830;151.202;2022-12-29T12:36:58;13.60;;;3.67;;
25667;SDS011;18003;-33.830;151.202;2022-12-29T12:39:47;9.48;;;3.80;;
25667;SDS011;18003;-33.830;151.202;2022-12-29T12:45:26;9.63;;;3.80;;
25667;SDS011;18003;-33.830;151.202;2022-12-29T12:50:44;12.35;;;3.70;;
25667;SDS011;18003;-33.830;151.202;2022-12-29T12:53:36;9.33;;;3.42;;
25667;SDS011;18003;-33.830;151.202;2022-12-29T12:59:04;7.25;;;3.80;;
25667;SDS011;18003;-33.830;151.202;2022-12-29T13:09:58;7.75;;;3.47;;
25667;SDS011;18003;-33.830;151.202;2022-12-29T13:12:41;7.78;;;3.65;;
25667;SDS011;18003;-33.830;151.202;2022-12-29T13:17:55;8.50;;;3.17;;
25667;SDS011;18003;-33.830;151.202;2022-12-29T13:20:39;6.28;;;3.12;;
25667;SDS011;18003;-33.830;151.202;2022-12-29T13:26:14;6.58;;;2.90;;
25667;SDS011;18003;-33.830;151.202;2022-12-29T13:29:01;9.10;;;2.90;;
25667;SDS011;18003;-33.830;151.202;2022-12-29T13:31:45;8.18;;;2.55;;
25667;SDS011;18003;-33.830;151.202;2022-12-29T13:37:11;8.33;;;3.00;;
25667;SDS011;18003;-33.830;151.202;2022-12-29T13:39:46;5.92;;;2.50;;
25667;SDS011;18003;-33.830;151.202;2022-12-29T13:42:19;7.62;;;2.90;;
25667;SDS011;18003;-33.830;151.202;2022-12-29T13:45:01;7.20;;;2.80;;
25667;SDS011;18003;-33.830;151.202;2022-12-29T13:47:40;7.37;;;3.10;;
25667;SDS011;18003;-33.830;151.202;2022-12-29T13:50:12;6.60;;;2.85;;
25667;SDS011;18003;-33.830;151.202;2022-12-29T13:52:55;7.78;;;3.00;;
25667;SDS011;18003;-33.830;151.202;2022-12-29T13:55:51;7.75;;;2.70;;
25667;SDS011;18003;-33.830;151.202;2022-12-29T14:03:58;7.53;;;2.87;;
25667;SDS011;18003;-33.830;151.202;2022-12-29T14:06:56;6.65;;;2.70;;
25667;SDS011;18003;-33.830;151.202;2022-12-29T14:09:38;4.80;;;2.80;;
25667;SDS011;18003;-33.830;151.202;2022-12-29T14:15:14;5.60;;;2.30;;
25667;SDS011;18003;-33.830;151.202;2022-12-29T14:17:39;4.78;;;2.10;;
25667;SDS011;18003;-33.830;151.202;2022-12-29T14:20:20;6.47;;;2.30;;
25667;SDS011;18003;-33.830;151.202;2022-12-29T14:22:57;6.92;;;2.20;;
25667;SDS011;18003;-33.830;151.202;2022-12-29T14:28:42;4.35;;;2.00;;
25667;SDS011;18003;-33.830;151.202;2022-12-29T14:37:04;9.35;;;2.52;;
25667;SDS011;18003;-33.830;151.202;2022-12-29T14:44:33;5.05;;;2.15;;
25667;SDS011;18003;-33.830;151.202;2022-12-29T14:49:52;6.53;;;2.00;;
25667;SDS011;18003;-33.830;151.202;2022-12-29T14:52:23;8.23;;;2.37;;
25667;SDS011;18003;-33.830;151.202;2022-12-29T14:54:56;5.05;;;2.37;;
25667;SDS011;18003;-33.830;151.202;2022-12-29T14:57:27;6.85;;;2.10;;
25667;SDS011;18003;-33.830;151.202;2022-12-29T15:00:05;5.28;;;2.20;;
25667;SDS011;18003;-33.830;151.202;2022-12-29T15:05:45;7.28;;;2.47;;
25667;SDS011;18003;-33.830;151.202;2022-12-29T15:08:24;10.18;;;2.87;;
25667;SDS011;18003;-33.830;151.202;2022-12-29T15:10:55;6.60;;;2.80;;
25667;SDS011;18003;-33.830;151.202;2022-12-29T15:13:39;8.03;;;2.80;;
25667;SDS011;18003;-33.830;151.202;2022-12-29T15:16:04;6.42;;;2.80;;
25667;SDS011;18003;-33.830;151.202;2022-12-29T15:18:35;8.45;;;3.47;;
25667;SDS011;18003;-33.830;151.202;2022-12-29T15:21:11;8.13;;;3.30;;
25667;SDS011;18003;-33.830;151.202;2022-12-29T15:23:39;10.70;;;4.10;;
25667;SDS011;18003;-33.830;151.202;2022-12-29T15:26:11;9.13;;;3.52;;
25667;SDS011;18003;-33.830;151.202;2022-12-29T15:28:44;10.32;;;3.90;;
25667;SDS011;18003;-33.830;151.202;2022-12-29T15:31:17;8.08;;;3.70;;
25667;SDS011;18003;-33.830;151.202;2022-12-29T15:33:49;7.80;;;3.33;;
25667;SDS011;18003;-33.830;151.202;2022-12-29T15:36:21;8.83;;;3.25;;
25667;SDS011;18003;-33.830;151.202;2022-12-29T15:38:55;7.95;;;3.27;;
25667;SDS011;18003;-33.830;151.202;2022-12-29T15:41:26;8.35;;;3.02;;
25667;SDS011;18003;-33.830;151.202;2022-12-29T15:44:28;8.03;;;2.90;;
25667;SDS011;18003;-33.830;151.202;2022-12-29T15:46:54;8.80;;;2.72;;
25667;SDS011;18003;-33.830;151.202;2022-12-29T15:49:25;8.18;;;2.87;;
25667;SDS011;18003;-33.830;151.202;2022-12-29T15:51:54;9.13;;;2.60;;
25667;SDS011;18003;-33.830;151.202;2022-12-29T15:54:26;6.73;;;2.83;;
25667;SDS011;18003;-33.830;151.202;2022-12-29T15:56:58;9.38;;;3.00;;
25667;SDS011;18003;-33.830;151.202;2022-12-29T16:01:58;5.45;;;2.60;;
25667;SDS011;18003;-33.830;151.202;2022-12-29T16:04:30;9.38;;;3.12;;
25667;SDS011;18003;-33.830;151.202;2022-12-29T16:07:01;7.35;;;2.62;;
25667;SDS011;18003;-33.830;151.202;2022-12-29T16:09:44;9.40;;;3.10;;
25667;SDS011;18003;-33.830;151.202;2022-12-29T16:12:20;8.48;;;2.90;;
25667;SDS011;18003;-33.830;151.202;2022-12-29T16:14:47;9.90;;;3.00;;
25667;SDS011;18003;-33.830;151.202;2022-12-29T16:17:24;9.93;;;3.77;;
25667;SDS011;18003;-33.830;151.202;2022-12-29T16:22:55;7.65;;;2.90;;
25667;SDS011;18003;-33.830;151.202;2022-12-29T16:25:23;8.28;;;2.72;;
25667;SDS011;18003;-33.830;151.202;2022-12-29T16:27:54;9.25;;;2.80;;
25667;SDS011;18003;-33.830;151.202;2022-12-29T16:30:31;6.92;;;2.80;;
25667;SDS011;18003;-33.830;151.202;2022-12-29T16:33:02;9.40;;;2.98;;
25667;SDS011;18003;-33.830;151.202;2022-12-29T16:35:45;9.95;;;3.05;;
25667;SDS011;18003;-33.830;151.202;2022-12-29T16:40:58;7.28;;;2.80;;
25667;SDS011;18003;-33.830;151.202;2022-12-29T16:43:35;13.00;;;3.27;;
25667;SDS011;18003;-33.830;151.202;2022-12-29T16:46:21;11.68;;;3.22;;
25667;SDS011;18003;-33.830;151.202;2022-12-29T16:48:56;8.50;;;2.77;;
25667;SDS011;18003;-33.830;151.202;2022-12-29T16:54:04;9.08;;;2.85;;
25667;SDS011;18003;-33.830;151.202;2022-12-29T16:56:35;10.82;;;2.67;;